createdAt,value
2023-04-17T00:00:51.500Z,99.99
2023-04-17T00:01:51.809Z,99.99
2023-04-17T00:02:51.625Z,99.99
2023-04-17T00:03:51.588Z,99.99
2023-04-17T00:04:51.568Z,99.99
2023-04-17T00:05:51.432Z,99.99
2023-04-17T00:06:51.437Z,99.99
2023-04-17T00:07:51.431Z,99.99
2023-04-17T00:08:53.700Z,99.99
2023-04-17T00:09:51.393Z,99.99
2023-04-17T00:11:00.584Z,99.99
2023-04-17T00:11:52.700Z,99.99
2023-04-17T00:12:51.375Z,99.99
2023-04-17T00:13:51.647Z,99.99
2023-04-17T00:14:51.344Z,99.99
2023-04-17T00:15:51.313Z,99.99
2023-04-17T00:16:51.333Z,99.99
2023-04-17T00:17:51.326Z,99.99
2023-04-17T00:18:51.323Z,99.99
2023-04-17T00:19:51.272Z,99.99
2023-04-17T00:20:51.267Z,99.99
2023-04-17T00:21:51.233Z,99.99
2023-04-17T00:22:51.282Z,99.99
2023-04-17T00:23:51.219Z,99.99
2023-04-17T00:24:51.246Z,99.99
2023-04-17T00:25:51.198Z,99.99
2023-04-17T00:26:51.201Z,99.99
2023-04-17T00:27:51.181Z,99.99
2023-04-17T00:28:51.522Z,99.99
2023-04-17T00:29:51.159Z,99.99
2023-04-17T00:30:51.168Z,99.99
2023-04-17T00:31:51.243Z,99.99
2023-04-17T00:32:51.188Z,99.99
2023-04-17T00:33:51.110Z,99.99
2023-04-17T00:34:52.168Z,99.99
2023-04-17T00:35:51.108Z,99.99
2023-04-17T00:36:51.065Z,99.99
2023-04-17T00:37:51.378Z,99.99
2023-04-17T00:38:51.425Z,99.99
2023-04-17T00:39:51.339Z,99.99
2023-04-17T00:40:51.064Z,99.99
2023-04-17T00:41:51.040Z,99.99
2023-04-17T00:42:51.049Z,99.99
2023-04-17T00:43:51.012Z,99.99
2023-04-17T00:44:51.279Z,99.99
2023-04-17T00:45:51.038Z,99.99
2023-04-17T00:46:50.970Z,99.99
2023-04-17T00:47:51.036Z,99.99
2023-04-17T00:48:50.956Z,99.99
2023-04-17T00:49:51.256Z,99.99
2023-04-17T00:50:50.961Z,99.99
2023-04-17T00:51:50.914Z,99.99
2023-04-17T00:52:50.930Z,99.99
2023-04-17T00:53:50.923Z,99.99
2023-04-17T00:54:50.866Z,99.99
2023-04-17T00:55:50.850Z,99.99
2023-04-17T00:56:50.867Z,99.99
2023-04-17T00:57:50.912Z,99.99
2023-04-17T00:58:50.848Z,99.99
2023-04-17T00:59:52.716Z,99.99
2023-04-17T01:00:50.825Z,99.99
2023-04-17T01:01:50.880Z,99.99
2023-04-17T01:02:51.237Z,99.99
2023-04-17T01:03:50.928Z,99.99
2023-04-17T01:04:50.757Z,99.99
2023-04-17T01:05:50.780Z,99.99
2023-04-17T01:06:50.731Z,99.99
2023-04-17T01:07:50.719Z,99.99
2023-04-17T01:08:50.693Z,99.99
2023-04-17T01:09:50.759Z,99.99
2023-04-17T01:10:50.684Z,99.99
2023-04-17T01:11:50.689Z,99.99
2023-04-17T01:12:50.673Z,99.99
2023-04-17T01:13:50.663Z,99.99
2023-04-17T01:14:50.647Z,99.99
2023-04-17T01:15:50.638Z,99.99
2023-04-17T01:16:50.681Z,99.99
2023-04-17T01:17:50.608Z,99.99
2023-04-17T01:18:50.879Z,99.99
2023-04-17T01:19:50.612Z,99.99
2023-04-17T01:20:53.262Z,99.99
2023-04-17T01:21:53.252Z,99.99
2023-04-17T01:22:50.568Z,99.99
2023-04-17T01:23:50.540Z,99.99
2023-04-17T01:24:50.521Z,99.99
2023-04-17T01:25:50.537Z,99.99
2023-04-17T01:26:50.488Z,99.99
2023-04-17T01:27:50.493Z,99.99
2023-04-17T01:28:50.475Z,99.99
2023-04-17T01:29:58.523Z,99.99
2023-04-17T01:30:59.020Z,99.99
2023-04-17T01:31:58.445Z,99.99
2023-04-17T01:32:59.037Z,99.99
2023-04-17T01:33:50.383Z,99.99
2023-04-17T01:34:58.953Z,99.99
2023-04-17T01:35:57.411Z,99.99
2023-04-17T01:36:50.386Z,99.99
2023-04-17T01:37:50.388Z,99.99
2023-04-17T01:38:50.388Z,99.99
2023-04-17T01:39:50.363Z,99.99
2023-04-17T01:40:50.340Z,99.99
2023-04-17T01:41:50.334Z,99.99
2023-04-17T01:42:50.338Z,99.99
2023-04-17T01:43:50.355Z,99.99
2023-04-17T01:44:50.301Z,99.99
2023-04-17T01:45:50.313Z,99.99
2023-04-17T01:46:50.256Z,99.99
2023-04-17T01:47:50.335Z,99.99
2023-04-17T01:48:50.240Z,99.99
2023-04-17T01:49:50.219Z,99.99
2023-04-17T01:50:50.297Z,99.99
2023-04-17T01:51:50.209Z,99.99
2023-04-17T01:52:50.197Z,99.99
2023-04-17T01:53:50.208Z,99.99
2023-04-17T01:54:50.229Z,99.99
2023-04-17T01:55:50.224Z,99.99
2023-04-17T01:56:50.164Z,99.99
2023-04-17T01:57:50.135Z,99.99
2023-04-17T01:58:50.137Z,99.99
2023-04-17T01:59:50.147Z,99.99
2023-04-17T02:00:50.384Z,99.99
2023-04-17T02:01:50.166Z,99.99
2023-04-17T02:02:50.205Z,99.99
2023-04-17T02:03:50.247Z,99.99
2023-04-17T02:04:50.068Z,99.99
2023-04-17T02:05:50.049Z,99.99
2023-04-17T02:06:50.031Z,99.99
2023-04-17T02:07:50.041Z,99.99
2023-04-17T02:08:50.029Z,99.99
2023-04-17T02:09:50.001Z,99.99
2023-04-17T02:10:50.012Z,99.99
2023-04-17T02:11:49.976Z,99.99
2023-04-17T02:12:50.010Z,99.99
2023-04-17T02:13:50.244Z,99.99
2023-04-17T02:14:49.938Z,99.99
2023-04-17T02:15:49.975Z,99.99
2023-04-17T02:16:49.906Z,99.99
2023-04-17T02:17:49.969Z,99.99
2023-04-17T02:18:49.935Z,99.99
2023-04-17T02:19:49.897Z,99.99
2023-04-17T02:20:49.871Z,99.99
2023-04-17T02:21:49.873Z,99.99
2023-04-17T02:22:52.638Z,99.99
2023-04-17T02:23:49.864Z,99.99
2023-04-17T02:24:49.892Z,99.99
2023-04-17T02:25:49.818Z,99.99
2023-04-17T02:26:49.818Z,99.99
2023-04-17T02:27:49.792Z,99.99
2023-04-17T02:28:49.798Z,99.99
2023-04-17T02:29:49.758Z,99.99
2023-04-17T02:30:49.760Z,99.99
2023-04-17T02:31:49.848Z,99.99
2023-04-17T02:32:49.758Z,99.99
2023-04-17T02:33:49.727Z,99.99
2023-04-17T02:34:49.756Z,99.99
2023-04-17T02:35:49.751Z,99.99
2023-04-17T02:36:49.704Z,99.99
2023-04-17T02:37:49.704Z,99.99
2023-04-17T02:38:49.688Z,99.99
2023-04-17T02:39:49.645Z,99.99
2023-04-17T02:40:49.632Z,99.99
2023-04-17T02:41:49.661Z,99.99
2023-04-17T02:42:49.685Z,99.99
2023-04-17T02:43:49.628Z,99.99
2023-04-17T02:44:49.632Z,99.99
2023-04-17T02:45:49.590Z,99.99
2023-04-17T02:46:49.974Z,99.99
2023-04-17T02:47:49.688Z,99.99
2023-04-17T02:48:49.564Z,99.99
2023-04-17T02:49:49.543Z,99.99
2023-04-17T02:50:49.543Z,99.99
2023-04-17T02:51:49.545Z,99.99
2023-04-17T02:52:49.517Z,99.99
2023-04-17T02:53:49.493Z,99.99
2023-04-17T02:54:49.521Z,99.99
2023-04-17T02:55:49.501Z,99.99
2023-04-17T02:56:49.493Z,99.99
2023-04-17T02:57:49.455Z,99.99
2023-04-17T02:58:49.451Z,99.99
2023-04-17T02:59:49.464Z,99.99
2023-04-17T03:00:49.472Z,99.99
2023-04-17T03:01:50.186Z,99.99
2023-04-17T03:02:49.600Z,99.99
2023-04-17T03:03:49.694Z,99.99
2023-04-17T03:04:49.394Z,99.99
2023-04-17T03:05:49.365Z,99.99
2023-04-17T03:06:49.342Z,99.99
2023-04-17T03:07:49.352Z,99.99
2023-04-17T03:08:49.316Z,99.99
2023-04-17T03:09:49.331Z,99.99
2023-04-17T03:10:49.310Z,99.99
2023-04-17T03:11:49.584Z,99.99
2023-04-17T03:12:52.146Z,99.99
2023-04-17T03:13:49.270Z,99.99
2023-04-17T03:14:49.271Z,99.99
2023-04-17T03:15:49.236Z,99.99
2023-04-17T03:16:57.428Z,99.99
2023-04-17T03:17:49.273Z,99.99
2023-04-17T03:18:56.717Z,99.99
2023-04-17T03:19:56.237Z,99.99
2023-04-17T03:20:49.176Z,99.99
2023-04-17T03:21:49.182Z,99.99
2023-04-17T03:22:49.187Z,99.99
2023-04-17T03:23:49.504Z,99.99
2023-04-17T03:24:49.143Z,99.99
2023-04-17T03:25:49.456Z,99.99
2023-04-17T03:26:49.126Z,99.99
2023-04-17T03:27:49.144Z,99.99
2023-04-17T03:28:49.118Z,99.99
2023-04-17T03:29:49.108Z,99.99
2023-04-17T03:30:49.081Z,99.99
2023-04-17T03:31:49.151Z,99.99
2023-04-17T03:32:49.124Z,99.99
2023-04-17T03:33:49.035Z,99.99
2023-04-17T03:34:49.051Z,99.99
2023-04-17T03:35:49.011Z,99.99
2023-04-17T03:36:49.277Z,99.99
2023-04-17T03:37:49.030Z,99.99
2023-04-17T03:38:48.977Z,99.99
2023-04-17T03:39:48.965Z,99.99
2023-04-17T03:40:48.977Z,99.99
2023-04-17T03:41:48.967Z,99.99
2023-04-17T03:42:48.955Z,99.99
2023-04-17T03:43:48.980Z,99.99
2023-04-17T03:44:48.919Z,99.99
2023-04-17T03:45:48.955Z,99.99
2023-04-17T03:46:48.916Z,99.99
2023-04-17T03:47:49.233Z,99.99
2023-04-17T03:48:48.857Z,99.99
2023-04-17T03:49:48.884Z,99.99
2023-04-17T03:50:48.861Z,99.99
2023-04-17T03:51:48.845Z,99.99
2023-04-17T03:52:48.871Z,99.99
2023-04-17T03:53:49.761Z,99.99
2023-04-17T03:54:48.811Z,99.99
2023-04-17T03:55:48.831Z,99.99
2023-04-17T03:56:48.792Z,99.99
2023-04-17T03:57:48.776Z,99.99
2023-04-17T03:58:48.820Z,99.99
2023-04-17T03:59:48.749Z,99.99
2023-04-17T04:00:48.743Z,99.99
2023-04-17T04:01:48.743Z,99.99
2023-04-17T04:02:48.884Z,99.99
2023-04-17T04:03:48.951Z,99.99
2023-04-17T04:04:48.766Z,99.99
2023-04-17T04:05:48.680Z,99.99
2023-04-17T04:06:48.652Z,99.99
2023-04-17T04:07:48.653Z,99.99
2023-04-17T04:08:48.657Z,99.99
2023-04-17T04:09:48.634Z,99.99
2023-04-17T04:10:48.627Z,99.99
2023-04-17T04:11:48.593Z,99.99
2023-04-17T04:12:48.634Z,99.99
2023-04-17T04:13:48.588Z,99.99
2023-04-17T04:14:48.557Z,99.99
2023-04-17T04:15:48.641Z,99.99
2023-04-17T04:16:48.551Z,99.99
2023-04-17T04:17:48.601Z,99.99
2023-04-17T04:18:48.530Z,99.99
2023-04-17T04:19:48.532Z,99.99
2023-04-17T04:20:48.539Z,99.99
2023-04-17T04:21:48.494Z,99.99
2023-04-17T04:22:48.489Z,99.99
2023-04-17T04:23:48.477Z,99.99
2023-04-17T04:24:48.464Z,99.99
2023-04-17T04:25:48.477Z,99.99
2023-04-17T04:26:48.424Z,99.99
2023-04-17T04:27:48.444Z,99.99
2023-04-17T04:28:48.424Z,99.99
2023-04-17T04:29:48.399Z,99.99
2023-04-17T04:30:48.383Z,99.99
2023-04-17T04:31:48.443Z,99.99
2023-04-17T04:32:48.705Z,99.99
2023-04-17T04:33:48.354Z,99.99
2023-04-17T04:34:48.345Z,99.99
2023-04-17T04:35:48.351Z,99.99
2023-04-17T04:36:48.332Z,99.99
2023-04-17T04:37:48.336Z,99.99
2023-04-17T04:38:48.298Z,99.99
2023-04-17T04:39:48.277Z,99.99
2023-04-17T04:40:48.272Z,99.99
2023-04-17T04:41:48.277Z,99.99
2023-04-17T04:42:51.083Z,99.99
2023-04-17T04:43:48.237Z,99.99
2023-04-17T04:44:48.274Z,99.99
2023-04-17T04:45:48.219Z,99.99
2023-04-17T04:46:48.261Z,99.99
2023-04-17T04:47:48.252Z,99.99
2023-04-17T04:48:48.221Z,99.99
2023-04-17T04:49:48.156Z,99.99
2023-04-17T04:50:48.164Z,99.99
2023-04-17T04:51:48.150Z,99.99
2023-04-17T04:52:48.151Z,99.99
2023-04-17T04:53:49.296Z,99.99
2023-04-17T04:54:49.118Z,99.99
2023-04-17T04:55:48.149Z,99.99
2023-04-17T04:56:48.092Z,99.99
2023-04-17T04:57:48.069Z,99.99
2023-04-17T04:58:55.596Z,99.99
2023-04-17T04:59:55.091Z,99.99
2023-04-17T05:00:48.097Z,99.99
2023-04-17T05:01:55.642Z,99.99
2023-04-17T05:02:48.176Z,99.99
2023-04-17T05:03:55.230Z,99.99
2023-04-17T05:04:55.080Z,99.99
2023-04-17T05:05:55.047Z,99.99
2023-04-17T05:06:55.334Z,99.99
2023-04-17T05:07:59.333Z,99.99
2023-04-17T05:08:54.984Z,99.99
2023-04-17T05:09:47.952Z,99.99
2023-04-17T05:10:47.955Z,99.99
2023-04-17T05:11:47.915Z,99.99
2023-04-17T05:12:47.949Z,99.99
2023-04-17T05:13:48.222Z,99.99
2023-04-17T05:14:47.906Z,99.99
2023-04-17T05:15:47.925Z,99.99
2023-04-17T05:16:47.913Z,99.99
2023-04-17T05:17:48.226Z,99.99
2023-04-17T05:18:47.861Z,99.99
2023-04-17T05:19:47.848Z,99.99
2023-04-17T05:20:47.854Z,99.99
2023-04-17T05:21:47.817Z,99.99
2023-04-17T05:22:49.720Z,99.99
2023-04-17T05:23:47.788Z,99.99
2023-04-17T05:24:47.787Z,99.99
2023-04-17T05:25:47.789Z,99.99
2023-04-17T05:26:47.768Z,99.99
2023-04-17T05:27:47.770Z,99.99
2023-04-17T05:28:47.763Z,99.99
2023-04-17T05:29:47.741Z,99.99
2023-04-17T05:30:47.762Z,99.99
2023-04-17T05:31:47.750Z,99.99
2023-04-17T05:32:47.712Z,99.99
2023-04-17T05:33:47.678Z,99.99
2023-04-17T05:34:47.709Z,99.99
2023-04-17T05:35:47.656Z,99.99
2023-04-17T05:36:47.668Z,99.99
2023-04-17T05:37:47.645Z,99.99
2023-04-17T05:38:47.638Z,99.99
2023-04-17T05:39:47.614Z,99.99
2023-04-17T05:40:47.607Z,99.99
2023-04-17T05:41:47.602Z,99.99
2023-04-17T05:42:47.602Z,99.99
2023-04-17T05:43:47.594Z,99.99
2023-04-17T05:44:47.564Z,99.99
2023-04-17T05:45:47.587Z,99.99
2023-04-17T05:46:47.556Z,99.99
2023-04-17T05:47:47.565Z,99.99
2023-04-17T05:48:47.509Z,99.99
2023-04-17T05:49:47.520Z,99.99
2023-04-17T05:50:47.544Z,99.99
2023-04-17T05:51:49.355Z,99.99
2023-04-17T05:52:47.481Z,99.99
2023-04-17T05:53:47.480Z,99.99
2023-04-17T05:54:47.450Z,99.99
2023-04-17T05:55:47.463Z,99.99
2023-04-17T05:56:47.444Z,99.99
2023-04-17T05:57:47.404Z,99.99
2023-04-17T05:58:47.419Z,99.99
2023-04-17T05:59:47.432Z,99.99
2023-04-17T06:00:47.438Z,99.99
2023-04-17T06:01:50.159Z,99.99
2023-04-17T06:02:47.537Z,99.99
2023-04-17T06:03:47.511Z,99.99
2023-04-17T06:04:47.563Z,99.99
2023-04-17T06:05:47.528Z,99.99
2023-04-17T06:06:47.334Z,99.99
2023-04-17T06:07:47.357Z,99.99
2023-04-17T06:08:47.280Z,99.99
2023-04-17T06:09:47.294Z,99.99
2023-04-17T06:10:47.346Z,99.99
2023-04-17T06:11:47.315Z,99.99
2023-04-17T06:12:47.254Z,99.99
2023-04-17T06:13:47.224Z,99.99
2023-04-17T06:14:47.231Z,99.99
2023-04-17T06:15:47.260Z,99.99
2023-04-17T06:16:47.224Z,99.99
2023-04-17T06:17:47.225Z,99.99
2023-04-17T06:18:47.175Z,99.99
2023-04-17T06:19:47.152Z,99.99
2023-04-17T06:20:47.163Z,99.99
2023-04-17T06:21:47.161Z,99.99
2023-04-17T06:22:47.172Z,99.99
2023-04-17T06:23:47.142Z,99.99
2023-04-17T06:24:47.120Z,99.99
2023-04-17T06:25:47.155Z,99.99
2023-04-17T06:26:47.125Z,99.99
2023-04-17T06:27:47.083Z,99.99
2023-04-17T06:28:47.068Z,99.99
2023-04-17T06:29:47.072Z,99.99
2023-04-17T06:30:47.167Z,99.99
2023-04-17T06:31:47.037Z,99.99
2023-04-17T06:32:47.421Z,99.99
2023-04-17T06:33:47.009Z,99.99
2023-04-17T06:35:48.452Z,99.99
2023-04-17T06:36:46.998Z,99.99
2023-04-17T06:37:47.728Z,99.99
2023-04-17T06:38:46.945Z,99.99
2023-04-17T06:39:49.735Z,99.99
2023-04-17T06:40:47.756Z,99.99
2023-04-17T06:41:46.883Z,99.99
2023-04-17T06:42:46.895Z,99.99
2023-04-17T06:43:46.876Z,99.99
2023-04-17T06:44:46.881Z,99.99
2023-04-17T06:45:54.327Z,99.99
2023-04-17T06:46:54.692Z,99.99
2023-04-17T06:47:54.189Z,99.99
2023-04-17T06:48:54.226Z,99.99
2023-04-17T06:49:55.668Z,99.99
2023-04-17T06:50:46.827Z,99.99
2023-04-17T06:51:47.097Z,99.99
2023-04-17T06:52:46.778Z,99.99
2023-04-17T06:53:46.773Z,99.99
2023-04-17T06:54:46.760Z,99.99
2023-04-17T06:55:46.765Z,99.99
2023-04-17T06:56:46.794Z,99.99
2023-04-17T06:57:46.741Z,99.99
2023-04-17T06:58:46.709Z,99.99
2023-04-17T06:59:46.690Z,99.99
2023-04-17T07:00:46.777Z,99.99
2023-04-17T07:01:46.753Z,99.99
2023-04-17T07:02:46.715Z,99.99
2023-04-17T07:03:46.775Z,99.99
2023-04-17T07:04:46.761Z,99.99
2023-04-17T07:05:46.678Z,99.99
2023-04-17T07:06:46.643Z,99.99
2023-04-17T07:07:46.605Z,99.99
2023-04-17T07:08:46.610Z,99.86
2023-04-17T07:09:46.628Z,99.60
2023-04-17T07:10:46.620Z,99.60
2023-04-17T07:11:46.589Z,99.60
2023-04-17T07:12:46.651Z,99.80
2023-04-17T07:13:46.583Z,99.86
2023-04-17T07:14:46.572Z,99.50
2023-04-17T07:15:46.590Z,99.50
2023-04-17T07:16:46.519Z,99.35
2023-04-17T07:17:46.559Z,99.55
2023-04-17T07:18:46.479Z,99.76
2023-04-17T07:19:46.465Z,99.29
2023-04-17T07:20:46.495Z,99.19
2023-04-17T07:21:46.440Z,99.09
2023-04-17T07:22:46.445Z,98.99
2023-04-17T07:23:46.436Z,98.88
2023-04-17T07:24:46.421Z,98.88
2023-04-17T07:25:46.443Z,99.09
2023-04-17T07:26:46.708Z,98.99
2023-04-17T07:27:46.359Z,98.99
2023-04-17T07:28:46.398Z,99.19
2023-04-17T07:29:46.398Z,99.40
2023-04-17T07:30:46.383Z,99.60
2023-04-17T07:31:46.368Z,99.60
2023-04-17T07:32:46.425Z,99.70
2023-04-17T07:33:46.304Z,99.09
2023-04-17T07:34:46.332Z,99.29
2023-04-17T07:35:46.301Z,99.40
2023-04-17T07:36:46.308Z,99.60
2023-04-17T07:37:46.334Z,99.86
2023-04-17T07:38:46.297Z,99.91
2023-04-17T07:39:46.232Z,99.91
2023-04-17T07:40:46.274Z,99.80
2023-04-17T07:41:46.220Z,99.66
2023-04-17T07:42:46.216Z,99.55
2023-04-17T07:43:46.194Z,99.35
2023-04-17T07:44:46.182Z,99.25
2023-04-17T07:45:46.544Z,99.25
2023-04-17T07:46:46.296Z,98.83
2023-04-17T07:47:46.179Z,98.58
2023-04-17T07:48:46.144Z,98.18
2023-04-17T07:49:46.150Z,98.28
2023-04-17T07:50:46.147Z,98.24
2023-04-17T07:51:46.131Z,96.80
2023-04-17T07:52:46.087Z,96.29
2023-04-17T07:53:46.095Z,96.08
2023-04-17T07:54:46.074Z,95.98
2023-04-17T07:55:46.049Z,95.88
2023-04-17T07:56:46.058Z,95.47
2023-04-17T07:57:46.039Z,94.75
2023-04-17T07:58:46.019Z,94.81
2023-04-17T07:59:46.050Z,95.53
2023-04-17T08:00:46.031Z,95.79
2023-04-17T08:01:46.024Z,94.97
2023-04-17T08:02:46.098Z,94.15
2023-04-17T08:03:46.225Z,93.54
2023-04-17T08:04:46.122Z,93.29
2023-04-17T08:05:45.948Z,93.40
2023-04-17T08:06:45.911Z,93.09
2023-04-17T08:07:45.932Z,92.54
2023-04-17T08:08:46.150Z,92.64
2023-04-17T08:09:45.883Z,92.43
2023-04-17T08:10:45.902Z,90.19
2023-04-17T08:11:56.328Z,91.61
2023-04-17T08:12:47.123Z,91.16
2023-04-17T08:13:45.846Z,90.86
2023-04-17T08:14:45.829Z,91.27
2023-04-17T08:15:45.872Z,91.43
2023-04-17T08:16:45.824Z,90.20
2023-04-17T08:17:45.839Z,90.31
2023-04-17T08:18:45.791Z,89.90
2023-04-17T08:19:45.801Z,90.41
2023-04-17T08:20:45.774Z,90.00
2023-04-17T08:21:45.750Z,90.20
2023-04-17T08:22:45.767Z,88.67
2023-04-17T08:23:45.719Z,88.53
2023-04-17T08:24:45.813Z,88.06
2023-04-17T08:25:45.719Z,88.47
2023-04-17T08:26:45.706Z,88.82
2023-04-17T08:27:45.721Z,88.82
2023-04-17T08:28:53.762Z,89.23
2023-04-17T08:29:53.011Z,89.02
2023-04-17T08:30:53.659Z,89.43
2023-04-17T08:32:00.259Z,88.76
2023-04-17T08:35:06.672Z,89.43
2023-04-17T08:36:08.637Z,90.35
2023-04-17T08:37:06.646Z,90.04
2023-04-17T08:38:06.651Z,89.23
2023-04-17T08:39:06.623Z,89.12
2023-04-17T08:40:06.621Z,89.32
2023-04-17T08:41:06.849Z,89.02
2023-04-17T08:42:06.618Z,89.39
2023-04-17T08:43:06.554Z,88.22
2023-04-17T08:44:06.547Z,87.92
2023-04-17T08:45:06.580Z,87.20
2023-04-17T08:46:06.549Z,88.22
2023-04-17T08:47:06.529Z,87.30
2023-04-17T08:48:06.560Z,87.20
2023-04-17T08:49:06.481Z,87.92
2023-04-17T08:50:06.529Z,86.69
2023-04-17T08:51:06.483Z,86.94
2023-04-17T08:52:06.545Z,86.69
2023-04-17T08:53:06.450Z,87.55
2023-04-17T08:54:06.428Z,87.61
2023-04-17T08:55:06.458Z,86.49
2023-04-17T08:56:08.998Z,86.12
2023-04-17T08:57:06.416Z,86.83
2023-04-17T08:58:06.400Z,87.14
2023-04-17T08:59:06.459Z,86.83
2023-04-17T09:00:06.387Z,86.69
2023-04-17T09:01:06.382Z,87.30
2023-04-17T09:02:06.460Z,86.39
2023-04-17T09:03:06.450Z,86.69
2023-04-17T09:04:06.501Z,86.39
2023-04-17T09:05:06.416Z,85.88
2023-04-17T09:06:06.300Z,85.06
2023-04-17T09:07:06.303Z,85.16
2023-04-17T09:08:06.284Z,84.51
2023-04-17T09:09:06.269Z,84.67
2023-04-17T09:10:06.287Z,84.58
2023-04-17T09:11:06.244Z,83.86
2023-04-17T09:12:06.252Z,83.96
2023-04-17T09:13:06.321Z,83.92
2023-04-17T09:14:06.222Z,83.62
2023-04-17T09:15:06.216Z,84.03
2023-04-17T09:16:06.285Z,83.62
2023-04-17T09:17:06.214Z,84.12
2023-04-17T09:18:06.234Z,83.21
2023-04-17T09:19:06.141Z,83.11
2023-04-17T09:20:06.164Z,82.90
2023-04-17T09:21:06.468Z,82.50
2023-04-17T09:22:06.141Z,82.09
2023-04-17T09:23:06.104Z,81.68
2023-04-17T09:24:06.089Z,81.68
2023-04-17T09:25:06.121Z,82.19
2023-04-17T09:26:06.084Z,81.74
2023-04-17T09:27:06.092Z,80.93
2023-04-17T09:28:06.046Z,80.69
2023-04-17T09:29:06.049Z,80.29
2023-04-17T09:30:06.077Z,80.18
2023-04-17T09:31:06.056Z,79.98
2023-04-17T09:32:06.192Z,79.37
2023-04-17T09:33:06.018Z,79.68
2023-04-17T09:34:06.036Z,80.59
2023-04-17T09:35:06.129Z,80.59
2023-04-17T09:36:05.960Z,79.88
2023-04-17T09:37:05.935Z,79.63
2023-04-17T09:38:05.970Z,78.15
2023-04-17T09:39:05.914Z,79.47
2023-04-17T09:40:05.949Z,78.82
2023-04-17T09:41:05.898Z,78.72
2023-04-17T09:42:05.895Z,78.62
2023-04-17T09:43:07.062Z,78.89
2023-04-17T09:44:05.901Z,78.48
2023-04-17T09:45:05.859Z,77.81
2023-04-17T09:46:05.843Z,78.62
2023-04-17T09:47:05.941Z,77.40
2023-04-17T09:48:08.713Z,77.09
2023-04-17T09:49:05.822Z,78.01
2023-04-17T09:50:05.831Z,78.31
2023-04-17T09:51:05.789Z,79.23
2023-04-17T09:52:05.794Z,78.31
2023-04-17T09:53:05.774Z,77.50
2023-04-17T09:54:05.764Z,77.81
2023-04-17T09:55:05.762Z,76.38
2023-04-17T09:56:05.717Z,76.18
2023-04-17T09:57:05.721Z,77.06
2023-04-17T09:58:05.721Z,76.55
2023-04-17T09:59:07.529Z,76.34
2023-04-17T10:00:05.714Z,76.75
2023-04-17T10:01:05.690Z,78.04
2023-04-17T10:02:05.741Z,76.10
2023-04-17T10:03:05.820Z,74.79
2023-04-17T10:04:05.825Z,74.92
2023-04-17T10:05:05.636Z,75.84
2023-04-17T10:06:05.612Z,76.95
2023-04-17T10:07:05.594Z,76.41
2023-04-17T10:08:05.573Z,76.61
2023-04-17T10:09:05.576Z,74.99
2023-04-17T10:10:05.582Z,74.31
2023-04-17T10:11:05.871Z,75.23
2023-04-17T10:12:05.533Z,74.31
2023-04-17T10:13:05.517Z,75.33
2023-04-17T10:14:05.515Z,74.11
2023-04-17T10:15:12.832Z,73.39
2023-04-17T10:16:12.829Z,73.09
2023-04-17T10:17:05.462Z,72.78
2023-04-17T10:18:05.477Z,71.47
2023-04-17T10:19:13.771Z,72.04
2023-04-17T10:20:12.468Z,72.14
2023-04-17T10:21:06.557Z,71.84
2023-04-17T10:22:05.411Z,72.01
2023-04-17T10:23:05.404Z,71.60
2023-04-17T10:24:05.372Z,72.08
2023-04-17T10:25:05.397Z,71.36
2023-04-17T10:26:05.391Z,71.03
2023-04-17T10:27:07.679Z,70.72
2023-04-17T10:28:05.346Z,71.70
2023-04-17T10:29:05.344Z,68.26
2023-04-17T10:30:05.369Z,68.87
2023-04-17T10:31:05.303Z,67.14
2023-04-17T10:32:05.346Z,66.46
2023-04-17T10:33:06.192Z,67.07
2023-04-17T10:34:05.281Z,68.93
2023-04-17T10:35:05.287Z,68.22
2023-04-17T10:36:05.259Z,68.90
2023-04-17T10:37:05.266Z,67.27
2023-04-17T10:38:05.225Z,67.88
2023-04-17T10:39:05.250Z,67.78
2023-04-17T10:40:05.218Z,67.38
2023-04-17T10:41:05.187Z,66.36
2023-04-17T10:42:05.193Z,66.97
2023-04-17T10:43:05.206Z,67.38
2023-04-17T10:44:05.147Z,67.27
2023-04-17T10:45:05.153Z,66.46
2023-04-17T10:46:05.549Z,66.56
2023-04-17T10:47:05.135Z,66.90
2023-04-17T10:48:05.474Z,66.39
2023-04-17T10:49:05.089Z,66.69
2023-04-17T10:50:05.114Z,67.74
2023-04-17T10:51:05.082Z,67.33
2023-04-17T10:52:05.066Z,68.35
2023-04-17T10:53:05.043Z,68.35
2023-04-17T10:54:05.068Z,67.03
2023-04-17T10:55:05.038Z,65.81
2023-04-17T10:56:05.050Z,65.91
2023-04-17T10:57:05.017Z,66.29
2023-04-17T10:58:05.067Z,65.17
2023-04-17T10:59:04.997Z,64.56
2023-04-17T11:00:04.970Z,65.07
2023-04-17T11:01:05.049Z,63.21
2023-04-17T11:02:05.173Z,64.43
2023-04-17T11:03:05.048Z,64.43
2023-04-17T11:04:04.994Z,65.24
2023-04-17T11:05:05.059Z,63.89
2023-04-17T11:06:04.926Z,64.40
2023-04-17T11:07:04.878Z,64.67
2023-04-17T11:08:05.148Z,63.86
2023-04-17T11:09:04.865Z,63.56
2023-04-17T11:10:04.868Z,63.66
2023-04-17T11:11:04.844Z,61.56
2023-04-17T11:12:04.820Z,60.95
2023-04-17T11:13:04.836Z,61.79
2023-04-17T11:14:04.814Z,62.40
2023-04-17T11:15:04.817Z,60.98
2023-04-17T11:16:04.806Z,60.27
2023-04-17T11:17:04.888Z,60.07
2023-04-17T11:18:04.799Z,60.14
2023-04-17T11:19:05.076Z,59.94
2023-04-17T11:20:04.764Z,58.42
2023-04-17T11:21:04.710Z,58.59
2023-04-17T11:22:04.730Z,59.30
2023-04-17T11:23:04.715Z,59.58
2023-04-17T11:24:04.692Z,58.44
2023-04-17T11:25:04.716Z,58.26
2023-04-17T11:26:04.663Z,58.67
2023-04-17T11:27:04.705Z,59.48
2023-04-17T11:28:04.686Z,59.78
2023-04-17T11:29:04.633Z,58.47
2023-04-17T11:30:04.736Z,58.97
2023-04-17T11:31:04.733Z,57.86
2023-04-17T11:32:04.635Z,58.16
2023-04-17T11:33:04.780Z,58.18
2023-04-17T11:34:04.591Z,58.90
2023-04-17T11:35:04.601Z,59.53
2023-04-17T11:36:04.564Z,58.82
2023-04-17T11:37:05.148Z,59.10
2023-04-17T11:38:04.577Z,60.62
2023-04-17T11:39:04.529Z,59.68
2023-04-17T11:40:04.601Z,60.16
2023-04-17T11:41:04.556Z,59.92
2023-04-17T11:42:09.485Z,56.99
2023-04-17T11:43:04.479Z,57.90
2023-04-17T11:44:04.485Z,56.99
2023-04-17T11:45:04.898Z,56.86
2023-04-17T11:46:04.493Z,56.73
2023-04-17T11:47:04.762Z,56.43
2023-04-17T11:48:04.465Z,56.73
2023-04-17T11:49:04.422Z,58.25
2023-04-17T11:50:07.366Z,58.65
2023-04-17T11:51:04.384Z,58.65
2023-04-17T11:52:04.466Z,55.52
2023-04-17T11:53:04.353Z,56.33
2023-04-17T11:54:04.674Z,57.37
2023-04-17T11:55:04.343Z,58.89
2023-04-17T11:56:04.326Z,58.11
2023-04-17T11:57:04.303Z,58.44
2023-04-17T11:58:04.328Z,58.87
2023-04-17T11:59:04.277Z,59.27
2023-04-17T12:00:13.184Z,59.48
2023-04-17T12:01:12.123Z,59.88
2023-04-17T12:02:12.712Z,59.88
2023-04-17T12:03:16.273Z,59.99
2023-04-17T12:04:12.263Z,59.88
2023-04-17T12:05:13.563Z,60.08
2023-04-17T12:06:12.601Z,58.94
2023-04-17T12:07:04.197Z,58.84
2023-04-17T12:08:04.200Z,59.45
2023-04-17T12:09:04.163Z,58.94
2023-04-17T12:10:06.059Z,58.51
2023-04-17T12:11:04.161Z,58.71
2023-04-17T12:12:04.192Z,57.50
2023-04-17T12:13:04.140Z,58.51
2023-04-17T12:14:04.158Z,59.12
2023-04-17T12:15:04.130Z,57.29
2023-04-17T12:16:04.759Z,57.70
2023-04-17T12:17:04.103Z,58.00
2023-04-17T12:18:04.132Z,57.40
2023-04-17T12:19:04.139Z,57.80
2023-04-17T12:20:06.896Z,58.11
2023-04-17T12:21:04.036Z,58.64
2023-04-17T12:22:04.043Z,58.84
2023-04-17T12:23:04.009Z,58.23
2023-04-17T12:24:04.032Z,58.23
2023-04-17T12:25:04.017Z,58.06
2023-04-17T12:26:04.030Z,58.87
2023-04-17T12:27:03.993Z,59.07
2023-04-17T12:28:03.968Z,59.65
2023-04-17T12:29:08.064Z,59.55
2023-04-17T12:30:03.974Z,58.74
2023-04-17T12:31:03.966Z,57.22
2023-04-17T12:32:04.318Z,57.22
2023-04-17T12:33:03.953Z,57.22
2023-04-17T12:34:03.914Z,57.73
2023-04-17T12:35:03.949Z,58.03
2023-04-17T12:36:04.221Z,58.00
2023-04-17T12:37:03.868Z,58.54
2023-04-17T12:38:03.874Z,57.53
2023-04-17T12:39:03.908Z,57.45
2023-04-17T12:40:04.190Z,57.62
2023-04-17T12:41:03.866Z,57.32
2023-04-17T12:42:03.876Z,57.35
2023-04-17T12:43:03.831Z,57.35
2023-04-17T12:44:03.808Z,57.86
2023-04-17T12:45:03.798Z,56.74
2023-04-17T12:46:03.839Z,57.24
2023-04-17T12:47:03.802Z,57.73
2023-04-17T12:48:03.779Z,58.23
2023-04-17T12:49:04.621Z,57.42
2023-04-17T12:50:04.449Z,58.54
2023-04-17T12:51:03.735Z,57.53
2023-04-17T12:52:04.108Z,59.01
2023-04-17T12:53:03.703Z,58.11
2023-04-17T12:54:03.726Z,59.12
2023-04-17T12:55:03.688Z,58.11
2023-04-17T12:56:03.660Z,58.51